createdAt,value
2016-07-16T00:00:25.253Z,99.99
2016-07-16T00:01:25.260Z,99.99
2016-07-16T00:02:25.733Z,99.99
2016-07-16T00:03:25.263Z,99.99
2016-07-16T00:04:25.258Z,99.99
2016-07-16T00:05:25.683Z,99.99
2016-07-16T00:06:25.298Z,99.99
2016-07-16T00:07:25.286Z,99.99
2016-07-16T00:08:25.293Z,99.99
2016-07-16T00:09:25.438Z,99.99
2016-07-16T00:10:25.257Z,99.99
2016-07-16T00:11:25.264Z,99.99
2016-07-16T00:12:25.282Z,99.99
2016-07-16T00:13:25.262Z,99.99
2016-07-16T00:14:25.282Z,99.99
2016-07-16T00:15:25.279Z,99.99
2016-07-16T00:16:25.268Z,99.99
2016-07-16T00:17:25.264Z,99.99
2016-07-16T00:18:25.404Z,99.99
2016-07-16T00:19:25.393Z,99.99
2016-07-16T00:20:25.290Z,99.99
2016-07-16T00:21:25.422Z,99.99
2016-07-16T00:22:25.284Z,99.99
2016-07-16T00:23:25.273Z,99.99
2016-07-16T00:24:25.301Z,99.99
2016-07-16T00:25:25.280Z,99.99
2016-07-16T00:26:25.854Z,99.99
2016-07-16T00:27:25.319Z,99.99
2016-07-16T00:28:25.268Z,99.99
2016-07-16T00:29:25.303Z,99.99
2016-07-16T00:30:25.276Z,99.99
2016-07-16T00:31:25.286Z,99.99
2016-07-16T00:32:25.292Z,99.99
2016-07-16T00:33:25.279Z,99.99
2016-07-16T00:34:25.396Z,99.99
2016-07-16T00:35:25.293Z,99.99
2016-07-16T00:36:25.286Z,99.99
2016-07-16T00:37:25.284Z,99.99
2016-07-16T00:38:25.296Z,99.99
2016-07-16T00:39:25.296Z,99.99
2016-07-16T00:40:25.284Z,99.99
2016-07-16T00:41:25.286Z,99.99
2016-07-16T00:42:25.296Z,99.99
2016-07-16T00:43:25.543Z,99.99
2016-07-16T00:44:25.294Z,99.99
2016-07-16T00:45:25.304Z,99.99
2016-07-16T00:46:25.425Z,99.99
2016-07-16T00:47:25.282Z,99.99
2016-07-16T00:48:25.288Z,99.99
2016-07-16T00:49:25.384Z,99.99
2016-07-16T00:50:25.584Z,99.99
2016-07-16T00:51:25.312Z,99.99
2016-07-16T00:52:25.324Z,99.99
2016-07-16T00:53:25.285Z,99.99
2016-07-16T00:54:25.304Z,99.99
2016-07-16T00:55:25.277Z,99.99
2016-07-16T00:56:25.489Z,99.99
2016-07-16T00:57:25.286Z,99.99
2016-07-16T00:58:25.335Z,99.99
2016-07-16T00:59:25.440Z,99.99
2016-07-16T01:00:25.320Z,99.99
2016-07-16T01:01:26.406Z,99.99
2016-07-16T01:02:25.306Z,99.99
2016-07-16T01:03:25.314Z,99.99
2016-07-16T01:04:25.502Z,99.99
2016-07-16T01:05:25.492Z,99.99
2016-07-16T01:06:25.657Z,99.99
2016-07-16T01:07:25.310Z,99.99
2016-07-16T01:08:25.333Z,99.99
2016-07-16T01:09:25.395Z,99.99
2016-07-16T01:10:25.325Z,99.99
2016-07-16T01:11:25.309Z,99.99
2016-07-16T01:12:25.331Z,99.99
2016-07-16T01:13:25.339Z,99.99
2016-07-16T01:14:25.330Z,99.99
2016-07-16T01:15:25.322Z,99.99
2016-07-16T01:16:25.315Z,99.99
2016-07-16T01:17:25.319Z,99.99
2016-07-16T01:18:25.311Z,99.99
2016-07-16T01:19:25.324Z,99.99
2016-07-16T01:20:25.324Z,99.99
2016-07-16T01:21:25.357Z,99.99
2016-07-16T01:22:25.357Z,99.99
2016-07-16T01:23:25.347Z,99.99
2016-07-16T01:24:25.361Z,99.99
2016-07-16T01:25:25.346Z,99.99
2016-07-16T01:26:25.367Z,99.99
2016-07-16T01:27:25.354Z,99.99
2016-07-16T01:28:25.381Z,99.99
2016-07-16T01:29:25.332Z,99.99
2016-07-16T01:30:25.327Z,99.99
2016-07-16T01:31:25.332Z,99.99
2016-07-16T01:32:25.356Z,99.99
2016-07-16T01:33:25.363Z,99.99
2016-07-16T01:34:25.358Z,99.99
2016-07-16T01:35:25.329Z,99.99
2016-07-16T01:36:25.333Z,99.99
2016-07-16T01:37:25.359Z,99.99
2016-07-16T01:38:25.358Z,99.99
2016-07-16T01:39:25.346Z,99.99
2016-07-16T01:40:25.353Z,99.99
2016-07-16T01:41:25.347Z,99.99
2016-07-16T01:42:25.336Z,99.99
2016-07-16T01:43:25.366Z,99.99
2016-07-16T01:44:25.360Z,99.99
2016-07-16T01:45:25.341Z,99.99
2016-07-16T01:46:25.347Z,99.99
2016-07-16T01:47:25.359Z,99.99
2016-07-16T01:48:26.047Z,99.99
2016-07-16T01:49:25.359Z,99.99
2016-07-16T01:50:25.355Z,99.99
2016-07-16T01:51:25.349Z,99.99
2016-07-16T01:52:25.359Z,99.99
2016-07-16T01:53:25.361Z,99.99
2016-07-16T01:54:25.368Z,99.99
2016-07-16T01:55:25.341Z,99.99
2016-07-16T01:56:25.353Z,99.99
2016-07-16T01:57:25.331Z,99.99
2016-07-16T01:58:25.351Z,99.99
2016-07-16T01:59:25.361Z,99.99
2016-07-16T02:00:25.359Z,99.99
2016-07-16T02:01:25.357Z,99.99
2016-07-16T02:02:25.366Z,99.99
2016-07-16T02:03:25.371Z,99.99
2016-07-16T02:04:25.366Z,99.99
2016-07-16T02:05:25.361Z,99.99
2016-07-16T02:06:25.364Z,99.99
2016-07-16T02:07:25.370Z,99.99
2016-07-16T02:08:25.391Z,99.99
2016-07-16T02:09:25.376Z,99.99
2016-07-16T02:10:25.364Z,99.99
2016-07-16T02:11:25.381Z,99.99
2016-07-16T02:12:25.380Z,99.99
2016-07-16T02:13:25.390Z,99.99
2016-07-16T02:14:25.366Z,99.99
2016-07-16T02:15:25.372Z,99.99
2016-07-16T02:16:25.361Z,99.99
2016-07-16T02:17:25.374Z,99.99
2016-07-16T02:18:25.363Z,99.99
2016-07-16T02:19:25.370Z,99.99
2016-07-16T02:20:25.368Z,99.99
2016-07-16T02:21:25.991Z,99.99
2016-07-16T02:22:25.426Z,99.99
2016-07-16T02:23:25.387Z,99.99
2016-07-16T02:24:25.421Z,99.99
2016-07-16T02:25:25.390Z,99.99
2016-07-16T02:26:25.455Z,99.99
2016-07-16T02:27:25.422Z,99.99
2016-07-16T02:28:25.423Z,99.99
2016-07-16T02:29:25.402Z,99.99
2016-07-16T02:30:25.390Z,99.99
2016-07-16T02:31:25.485Z,99.99
2016-07-16T02:32:25.392Z,99.99
2016-07-16T02:33:25.392Z,99.99
2016-07-16T02:34:25.393Z,99.99
2016-07-16T02:35:25.384Z,99.99
2016-07-16T02:36:25.385Z,99.99
2016-07-16T02:37:25.397Z,99.99
2016-07-16T02:38:25.390Z,99.99
2016-07-16T02:39:25.391Z,99.99
2016-07-16T02:40:25.410Z,99.99
2016-07-16T02:41:25.399Z,99.99
2016-07-16T02:42:25.398Z,99.99
2016-07-16T02:43:25.383Z,99.99
2016-07-16T02:44:25.391Z,99.99
2016-07-16T02:45:25.384Z,99.99
2016-07-16T02:46:25.394Z,99.99
2016-07-16T02:47:25.414Z,99.99
2016-07-16T02:48:25.413Z,99.99
2016-07-16T02:49:25.411Z,99.99
2016-07-16T02:50:25.425Z,99.99
2016-07-16T02:51:25.420Z,99.99
2016-07-16T02:52:25.423Z,99.99
2016-07-16T02:53:25.413Z,99.99
2016-07-16T02:54:25.412Z,99.99
2016-07-16T02:55:25.423Z,99.99
2016-07-16T02:56:25.394Z,99.99
2016-07-16T02:57:25.419Z,99.99
2016-07-16T02:58:25.391Z,99.99
2016-07-16T02:59:25.393Z,99.99
2016-07-16T03:00:25.412Z,99.99
2016-07-16T03:01:25.402Z,99.99
2016-07-16T03:02:25.421Z,99.99
2016-07-16T03:03:25.422Z,99.99
2016-07-16T03:04:25.385Z,99.99
2016-07-16T03:05:25.404Z,99.99
2016-07-16T03:06:25.422Z,99.99
2016-07-16T03:07:25.405Z,99.99
2016-07-16T03:08:25.424Z,99.99
2016-07-16T03:09:25.419Z,99.99
2016-07-16T03:10:25.419Z,99.99
2016-07-16T03:11:25.423Z,99.99
2016-07-16T03:12:25.405Z,99.99
2016-07-16T03:13:25.399Z,99.99
2016-07-16T03:14:25.421Z,99.99
2016-07-16T03:15:25.417Z,99.99
2016-07-16T03:16:25.412Z,99.99
2016-07-16T03:17:25.425Z,99.86
2016-07-16T03:18:25.423Z,99.96
2016-07-16T03:19:25.422Z,99.57
2016-07-16T03:20:25.411Z,99.99
2016-07-16T03:21:25.424Z,99.43
2016-07-16T03:22:25.420Z,99.43
2016-07-16T03:23:25.409Z,99.62
2016-07-16T03:24:25.410Z,99.99
2016-07-16T03:25:25.450Z,99.62
2016-07-16T03:26:25.424Z,99.52
2016-07-16T03:27:25.479Z,99.99
2016-07-16T03:28:25.459Z,99.81
2016-07-16T03:29:25.443Z,99.99
2016-07-16T03:30:25.459Z,99.52
2016-07-16T03:31:25.430Z,99.52
2016-07-16T03:32:25.454Z,99.52
2016-07-16T03:33:25.444Z,98.95
2016-07-16T03:34:25.450Z,98.95
2016-07-16T03:35:25.453Z,98.66
2016-07-16T03:36:25.460Z,98.76
2016-07-16T03:37:25.485Z,98.76
2016-07-16T03:38:25.453Z,99.05
2016-07-16T03:39:25.452Z,98.19
2016-07-16T03:40:25.453Z,98.95
2016-07-16T03:41:25.456Z,98.28
2016-07-16T03:42:25.460Z,98.38
2016-07-16T03:43:25.463Z,98.47
2016-07-16T03:44:25.455Z,98.47
2016-07-16T03:45:25.449Z,98.95
2016-07-16T03:46:25.447Z,98.09
2016-07-16T03:47:25.445Z,98.28
2016-07-16T03:48:25.457Z,98.86
2016-07-16T03:49:25.427Z,99.24
2016-07-16T03:50:25.431Z,98.76
2016-07-16T03:51:25.436Z,98.86
2016-07-16T03:52:25.454Z,99.24
2016-07-16T03:53:25.501Z,98.76
2016-07-16T03:54:25.450Z,99.33
2016-07-16T03:55:25.457Z,99.24
2016-07-16T03:56:25.445Z,98.95
2016-07-16T03:57:25.458Z,99.43
2016-07-16T03:58:25.503Z,99.05
2016-07-16T03:59:25.451Z,99.05
2016-07-16T04:00:25.472Z,99.15
2016-07-16T04:01:25.441Z,99.1
2016-07-16T04:02:25.453Z,99.1
2016-07-16T04:03:25.457Z,99.1
2016-07-16T04:04:25.461Z,98.19
2016-07-16T04:05:25.466Z,98.19
2016-07-16T04:06:25.487Z,98.19
2016-07-16T04:07:25.451Z,98.52
2016-07-16T04:08:26.217Z,98.24
2016-07-16T04:09:25.456Z,97.75
2016-07-16T04:10:25.456Z,98.24
2016-07-16T04:11:25.475Z,98.33
2016-07-16T04:12:25.482Z,98.62
2016-07-16T04:13:25.486Z,98.33
2016-07-16T04:14:25.477Z,98.33
2016-07-16T04:15:25.483Z,98.24
2016-07-16T04:16:25.487Z,97.66
2016-07-16T04:17:25.485Z,97.95
2016-07-16T04:18:25.472Z,97.56
2016-07-16T04:19:25.486Z,97.75
2016-07-16T04:20:25.486Z,97.75
2016-07-16T04:21:25.487Z,97.38
2016-07-16T04:22:25.487Z,97.66
2016-07-16T04:23:25.488Z,98.24
2016-07-16T04:24:25.472Z,97.95
2016-07-16T04:25:25.485Z,97.66
2016-07-16T04:26:25.490Z,98.24
2016-07-16T04:27:25.479Z,97.47
2016-07-16T04:28:25.467Z,97.75
2016-07-16T04:29:25.489Z,97.75
2016-07-16T04:30:25.490Z,97.38
2016-07-16T04:31:25.478Z,97.28
2016-07-16T04:32:25.477Z,97.47
2016-07-16T04:33:25.500Z,97.47
2016-07-16T04:34:25.470Z,97.38
2016-07-16T04:35:25.478Z,97.28
2016-07-16T04:36:25.483Z,97.18
2016-07-16T04:37:25.479Z,97.18
2016-07-16T04:38:25.489Z,97.09
2016-07-16T04:39:25.487Z,97.18
2016-07-16T04:40:25.518Z,97.52
2016-07-16T04:41:25.503Z,97.47
2016-07-16T04:42:25.518Z,97.09
2016-07-16T04:43:25.521Z,97.28
2016-07-16T04:44:25.548Z,97.42
2016-07-16T04:45:25.530Z,97.33
2016-07-16T04:46:25.522Z,97.33
2016-07-16T04:47:25.508Z,97.33
2016-07-16T04:48:25.488Z,97.23
2016-07-16T04:49:25.514Z,97.14
2016-07-16T04:50:25.517Z,97.14
2016-07-16T04:51:25.514Z,97.33
2016-07-16T04:52:25.503Z,97.23
2016-07-16T04:53:25.486Z,97.42
2016-07-16T04:54:25.516Z,97.33
2016-07-16T04:55:25.525Z,97.23
2016-07-16T04:56:25.510Z,97.42
2016-07-16T04:57:25.517Z,97.33
2016-07-16T04:58:25.516Z,96.37
2016-07-16T04:59:25.502Z,97.33
2016-07-16T05:00:25.502Z,97.04
2016-07-16T05:01:25.517Z,97.04
2016-07-16T05:02:25.518Z,96.94
2016-07-16T05:03:25.518Z,96.75
2016-07-16T05:04:25.495Z,96.56
2016-07-16T05:05:25.508Z,96.75
2016-07-16T05:06:25.519Z,95.98
2016-07-16T05:07:25.521Z,95.98
2016-07-16T05:08:25.532Z,96.27
2016-07-16T05:09:25.510Z,96.08
2016-07-16T05:10:25.554Z,96.08
2016-07-16T05:11:25.538Z,96.03
2016-07-16T05:12:25.551Z,95.84
2016-07-16T05:13:25.533Z,96.13
2016-07-16T05:14:25.557Z,96.42
2016-07-16T05:15:25.552Z,95.46
2016-07-16T05:16:25.570Z,95.17
2016-07-16T05:17:25.580Z,94.59
2016-07-16T05:18:25.554Z,94.69
2016-07-16T05:19:25.563Z,93.88
2016-07-16T05:20:25.551Z,93.88
2016-07-16T05:21:25.532Z,93.3
2016-07-16T05:22:25.551Z,92.91
2016-07-16T05:23:25.578Z,92.63
2016-07-16T05:24:25.555Z,92.15
2016-07-16T05:25:25.541Z,92.29
2016-07-16T05:26:25.552Z,91
2016-07-16T05:27:25.540Z,90.66
2016-07-16T05:28:25.520Z,91.24
2016-07-16T05:29:25.556Z,90.66
2016-07-16T05:30:25.543Z,90.28
2016-07-16T05:31:25.521Z,89.79
2016-07-16T05:32:25.523Z,89.79
2016-07-16T05:33:25.510Z,89.99
2016-07-16T05:34:25.523Z,89.61
2016-07-16T05:35:25.515Z,89.17
2016-07-16T05:36:25.525Z,88.45
2016-07-16T05:37:25.534Z,88.07
2016-07-16T05:38:25.546Z,88.07
2016-07-16T05:39:25.551Z,88.07
2016-07-16T05:40:25.558Z,87.54
2016-07-16T05:41:25.563Z,88.21
2016-07-16T05:42:25.558Z,87.3
2016-07-16T05:43:25.552Z,87.15
2016-07-16T05:44:25.552Z,87.59
2016-07-16T05:45:25.562Z,87.49
2016-07-16T05:46:25.581Z,87.59
2016-07-16T05:47:25.560Z,87.59
2016-07-16T05:48:25.557Z,88.17
2016-07-16T05:49:25.565Z,88.17
2016-07-16T05:50:25.559Z,88.11
2016-07-16T05:51:25.583Z,88.65
2016-07-16T05:52:25.595Z,87.78
2016-07-16T05:53:25.583Z,87.73
2016-07-16T05:54:25.614Z,87.59
2016-07-16T05:55:25.561Z,88.02
2016-07-16T05:56:26.125Z,87.4
2016-07-16T05:57:25.572Z,87.59
2016-07-16T05:58:25.597Z,87.88
2016-07-16T05:59:25.575Z,87.78
2016-07-16T06:00:25.549Z,87.54
2016-07-16T06:01:25.578Z,88.02
2016-07-16T06:02:25.552Z,88.31
2016-07-16T06:03:25.584Z,87.63
2016-07-16T06:04:25.556Z,87.63
2016-07-16T06:05:25.598Z,87.44
2016-07-16T06:06:25.584Z,87.4
2016-07-16T06:07:25.588Z,87.73
2016-07-16T06:08:25.597Z,87.63
2016-07-16T06:09:25.608Z,87.73
2016-07-16T06:10:25.600Z,87.82
2016-07-16T06:11:25.576Z,86.58
2016-07-16T06:12:25.614Z,86.96
2016-07-16T06:13:26.140Z,86.87
2016-07-16T06:14:25.613Z,86.38
2016-07-16T06:15:25.573Z,86.38
2016-07-16T06:16:25.595Z,86.05
2016-07-16T06:17:25.631Z,85.66
2016-07-16T06:18:25.584Z,85.95
2016-07-16T06:19:25.588Z,85.95
2016-07-16T06:20:25.584Z,85.66
2016-07-16T06:21:25.584Z,85.95
2016-07-16T06:22:25.581Z,85.18
2016-07-16T06:23:25.581Z,84.41
2016-07-16T06:24:25.587Z,83.74
2016-07-16T06:25:25.582Z,83.69
2016-07-16T06:26:25.583Z,83.78
2016-07-16T06:27:25.587Z,84.36
2016-07-16T06:28:25.626Z,83.87
2016-07-16T06:29:25.587Z,83.11
2016-07-16T06:30:25.598Z,82.53
2016-07-16T06:31:25.604Z,81.99
2016-07-16T06:32:25.611Z,81.71
2016-07-16T06:33:25.620Z,81.42
2016-07-16T06:34:25.592Z,81.71
2016-07-16T06:35:25.625Z,81.52
2016-07-16T06:36:25.601Z,80.98
2016-07-16T06:37:25.615Z,80.6
2016-07-16T06:38:25.777Z,80.6
2016-07-16T06:39:25.601Z,80.4
2016-07-16T06:40:25.627Z,80.4
2016-07-16T06:41:25.617Z,80.5
2016-07-16T06:42:25.609Z,80.02
2016-07-16T06:43:25.629Z,80.5
2016-07-16T06:44:25.596Z,80.5
2016-07-16T06:45:25.608Z,79.92
2016-07-16T06:46:25.619Z,80.4
2016-07-16T06:47:25.622Z,80.21
2016-07-16T06:48:25.590Z,80.88
2016-07-16T06:49:25.610Z,80.98
2016-07-16T06:50:25.616Z,80.94
2016-07-16T06:51:25.620Z,81.13
2016-07-16T06:52:25.616Z,81.23
2016-07-16T06:53:25.617Z,80.94
2016-07-16T06:54:25.616Z,81.32
2016-07-16T06:55:25.864Z,81.42
2016-07-16T06:56:25.757Z,81.52
2016-07-16T06:57:25.631Z,80.84
2016-07-16T06:58:25.646Z,81.99
2016-07-16T06:59:25.604Z,81.81
2016-07-16T07:00:25.622Z,81.42
2016-07-16T07:01:25.635Z,81.52
2016-07-16T07:02:25.616Z,81.99
2016-07-16T07:03:25.649Z,80.94
2016-07-16T07:04:25.685Z,80.84
2016-07-16T07:05:25.661Z,81.46
2016-07-16T07:06:25.687Z,81.13
2016-07-16T07:07:25.666Z,81.13
2016-07-16T07:08:25.678Z,81.42
2016-07-16T07:09:25.637Z,80.94
2016-07-16T07:10:25.625Z,81.17
2016-07-16T07:11:25.631Z,81.17
2016-07-16T07:12:25.629Z,81.46
2016-07-16T07:13:25.671Z,81.9
2016-07-16T07:14:25.658Z,82.14
2016-07-16T07:15:25.647Z,81.56
2016-07-16T07:16:25.656Z,81.46
2016-07-16T07:17:25.662Z,81.56
2016-07-16T07:18:25.682Z,81.84
2016-07-16T07:19:25.706Z,81.94
2016-07-16T07:20:25.636Z,82.14
2016-07-16T07:21:26.308Z,82.04
2016-07-16T07:22:25.648Z,82.14
2016-07-16T07:23:25.950Z,82.04
2016-07-16T07:24:25.808Z,81.84
2016-07-16T07:25:26.237Z,82.61
2016-07-16T07:26:25.654Z,82.71
2016-07-16T07:27:25.680Z,82.86
2016-07-16T07:28:25.653Z,82.23
2016-07-16T07:29:25.651Z,82.29
2016-07-16T07:30:25.649Z,82.32
2016-07-16T07:31:25.649Z,82.71
2016-07-16T07:32:26.056Z,82.96
2016-07-16T07:33:25.662Z,82.81
2016-07-16T07:34:25.679Z,83
2016-07-16T07:35:25.700Z,82.76
2016-07-16T07:36:25.686Z,83.48
2016-07-16T07:37:25.830Z,82.81
2016-07-16T07:38:25.682Z,82.86
2016-07-16T07:39:25.686Z,83.44
2016-07-16T07:40:25.676Z,83.58
2016-07-16T07:41:25.650Z,83.06
2016-07-16T07:42:25.699Z,83.09
2016-07-16T07:43:25.684Z,83
2016-07-16T07:44:25.680Z,83.19
2016-07-16T07:45:25.753Z,83.19
2016-07-16T07:46:25.717Z,84.06
2016-07-16T07:47:25.680Z,83.96
2016-07-16T07:48:25.669Z,83.67
2016-07-16T07:49:25.680Z,83.09
2016-07-16T07:50:25.711Z,83.86
2016-07-16T07:51:25.705Z,82.9
2016-07-16T07:52:25.680Z,83
2016-07-16T07:53:25.711Z,83.19
2016-07-16T07:54:26.005Z,83.67
2016-07-16T07:55:25.668Z,83.86
2016-07-16T07:56:25.679Z,83.77
2016-07-16T07:57:25.671Z,83.67
2016-07-16T07:58:26.344Z,83.09
2016-07-16T07:59:25.830Z,82.81
2016-07-16T08:00:25.709Z,83.04
2016-07-16T08:01:25.737Z,83.14
2016-07-16T08:02:25.993Z,82.85
2016-07-16T08:03:25.683Z,83.04
2016-07-16T08:04:26.069Z,83.14
2016-07-16T08:05:25.679Z,82.94
2016-07-16T08:06:25.685Z,82.37
2016-07-16T08:07:25.832Z,82.75
2016-07-16T08:08:26.314Z,82.17
2016-07-16T08:09:25.707Z,82.21
2016-07-16T08:10:25.718Z,82.12
2016-07-16T08:11:26.038Z,81.54
2016-07-16T08:12:25.735Z,81.87
2016-07-16T08:13:25.678Z,80.33
2016-07-16T08:14:25.713Z,80.52
2016-07-16T08:15:25.705Z,80.14
2016-07-16T08:16:25.687Z,80.23
2016-07-16T08:17:25.831Z,80.04
2016-07-16T08:18:25.709Z,79.89
2016-07-16T08:19:25.742Z,78.92
2016-07-16T08:20:25.714Z,78.54
2016-07-16T08:21:25.714Z,78.73
2016-07-16T08:22:25.692Z,78.25
2016-07-16T08:23:25.712Z,78.44
2016-07-16T08:24:25.712Z,77.86
2016-07-16T08:25:25.716Z,78.06
2016-07-16T08:26:25.705Z,78.54
2016-07-16T08:27:25.723Z,78.83
2016-07-16T08:28:25.742Z,79.6
2016-07-16T08:29:25.702Z,79.5
2016-07-16T08:30:25.708Z,79.6
2016-07-16T08:31:25.711Z,79.98
2016-07-16T08:32:25.719Z,79.75
2016-07-16T08:33:25.713Z,79.89
2016-07-16T08:34:25.733Z,79.56
2016-07-16T08:35:25.745Z,79.66
2016-07-16T08:36:25.724Z,80.52
2016-07-16T08:37:25.772Z,79.85
2016-07-16T08:38:25.704Z,79.89
2016-07-16T08:39:25.845Z,79.79
2016-07-16T08:40:25.886Z,80.08
2016-07-16T08:41:25.877Z,79.79
2016-07-16T08:42:25.811Z,79.5
2016-07-16T08:43:25.821Z,79.21
2016-07-16T08:44:26.403Z,78.92
2016-07-16T08:45:25.785Z,79.69
2016-07-16T08:46:25.831Z,79.5
2016-07-16T08:47:25.895Z,79.6
2016-07-16T08:48:25.878Z,79.79
2016-07-16T08:49:25.722Z,78.73
2016-07-16T08:50:25.745Z,78.83
2016-07-16T08:51:25.722Z,78.34
2016-07-16T08:52:25.716Z,78.73
2016-07-16T08:53:25.909Z,77.9
2016-07-16T08:54:25.766Z,77.71
2016-07-16T08:55:25.750Z,78.48
2016-07-16T08:56:25.751Z,77.61
2016-07-16T08:57:26.082Z,77.51
2016-07-16T08:58:25.811Z,77.9
2016-07-16T08:59:25.763Z,77.51
2016-07-16T09:00:25.841Z,77.51
2016-07-16T09:01:25.791Z,77.81
2016-07-16T09:02:25.773Z,77.9
2016-07-16T09:03:25.752Z,77.61
2016-07-16T09:04:26.085Z,76.65
2016-07-16T09:05:25.760Z,76.4
2016-07-16T09:06:26.079Z,76.59
2016-07-16T09:07:26.205Z,76.68
2016-07-16T09:08:25.933Z,76.78
2016-07-16T09:09:25.849Z,76.59
2016-07-16T09:10:25.769Z,76.5
2016-07-16T09:11:25.757Z,76.3
2016-07-16T09:12:25.779Z,76.68
2016-07-16T09:13:25.791Z,76.4
2016-07-16T09:14:25.772Z,76.34
2016-07-16T09:15:25.917Z,76.5
2016-07-16T09:16:26.023Z,76.59
2016-07-16T09:17:25.748Z,76.05
2016-07-16T09:18:25.756Z,75.76
2016-07-16T09:19:25.762Z,76.05
2016-07-16T09:20:25.755Z,76.05
2016-07-16T09:21:25.760Z,75.37
2016-07-16T09:22:25.895Z,74.93
2016-07-16T09:23:25.762Z,75.67
2016-07-16T09:24:25.781Z,74.44
2016-07-16T09:25:25.749Z,74.99
2016-07-16T09:26:25.756Z,74.41
2016-07-16T09:27:25.775Z,74.99
2016-07-16T09:28:25.774Z,74.44
2016-07-16T09:29:25.828Z,73.58
2016-07-16T09:30:25.761Z,74.73
2016-07-16T09:31:25.821Z,73.67
2016-07-16T09:32:25.776Z,73.77
2016-07-16T09:33:25.764Z,73.77
2016-07-16T09:34:25.802Z,74.35
2016-07-16T09:35:25.762Z,74.69
2016-07-16T09:36:25.771Z,73.35
2016-07-16T09:37:26.066Z,74.31
2016-07-16T09:38:25.807Z,74.44
2016-07-16T09:39:25.777Z,74.06
2016-07-16T09:40:25.778Z,75.22
2016-07-16T09:41:25.819Z,74.73
2016-07-16T09:42:25.807Z,74.51
2016-07-16T09:43:25.793Z,74.93
2016-07-16T09:44:25.836Z,74.51
2016-07-16T09:45:25.803Z,74.64
2016-07-16T09:46:25.794Z,74.83
2016-07-16T09:47:25.847Z,74.79
2016-07-16T09:48:25.777Z,75.85
2016-07-16T09:49:25.831Z,75.76
2016-07-16T09:50:25.802Z,75.37
2016-07-16T09:51:25.796Z,75.47
2016-07-16T09:52:25.793Z,76.15
2016-07-16T09:53:25.784Z,75.47
2016-07-16T09:54:25.799Z,75.57
2016-07-16T09:55:25.797Z,75.47
2016-07-16T09:56:25.807Z,75.47
2016-07-16T09:57:25.799Z,74.79
2016-07-16T09:58:26.800Z,75.09
2016-07-16T09:59:25.808Z,74.35
2016-07-16T10:00:25.838Z,73.67
2016-07-16T10:01:26.438Z,74.1
2016-07-16T10:02:26.401Z,73.58
2016-07-16T10:03:25.839Z,73.52
2016-07-16T10:04:25.814Z,73.8
2016-07-16T10:05:25.871Z,73.13
2016-07-16T10:06:25.846Z,73.32
2016-07-16T10:07:25.826Z,73.13
2016-07-16T10:08:25.835Z,72.74
2016-07-16T10:09:25.878Z,71.72
2016-07-16T10:10:25.838Z,70.94
2016-07-16T10:11:25.813Z,71.23
2016-07-16T10:12:25.847Z,71.36
2016-07-16T10:13:25.820Z,71.66
2016-07-16T10:14:25.819Z,71.42
2016-07-16T10:15:25.866Z,71.52
2016-07-16T10:16:25.845Z,70.36
2016-07-16T10:17:25.870Z,70.65
2016-07-16T10:18:25.827Z,70.01
2016-07-16T10:19:25.835Z,68.59
2016-07-16T10:20:25.844Z,68.53
2016-07-16T10:21:25.841Z,67.3
2016-07-16T10:22:25.820Z,67.46
2016-07-16T10:23:25.837Z,67.18
2016-07-16T10:24:25.841Z,66.92
2016-07-16T10:25:25.848Z,67.21
2016-07-16T10:26:25.841Z,67.69
2016-07-16T10:27:25.877Z,67.79
2016-07-16T10:28:25.851Z,67.21
2016-07-16T10:29:25.841Z,66.92
2016-07-16T10:30:25.858Z,66.69
2016-07-16T10:31:25.836Z,67.56
2016-07-16T10:32:25.839Z,67.37
2016-07-16T10:33:25.843Z,67.08
2016-07-16T10:34:25.848Z,67.27
2016-07-16T10:35:25.873Z,68.15
2016-07-16T10:36:25.851Z,68.4
2016-07-16T10:37:25.837Z,67.46
2016-07-16T10:38:25.841Z,67.66
2016-07-16T10:39:25.843Z,67.37
2016-07-16T10:40:25.872Z,67.27
2016-07-16T10:41:25.868Z,66.69
2016-07-16T10:42:25.937Z,66.72
2016-07-16T10:43:25.823Z,66.92
2016-07-16T10:44:25.841Z,66.53
2016-07-16T10:45:25.905Z,67.02
2016-07-16T10:46:25.871Z,66.92
2016-07-16T10:47:25.862Z,66.43
2016-07-16T10:48:25.843Z,66.43
2016-07-16T10:49:25.849Z,66.14
2016-07-16T10:50:25.856Z,66.14
2016-07-16T10:51:25.861Z,67.3
2016-07-16T10:52:25.856Z,66.37
2016-07-16T10:53:25.871Z,66.56
2016-07-16T10:54:25.902Z,66.08
2016-07-16T10:55:25.856Z,65.69
2016-07-16T10:56:25.901Z,65.79
2016-07-16T10:57:25.862Z,66.17
2016-07-16T10:58:25.879Z,66.08
2016-07-16T10:59:25.933Z,66.17
2016-07-16T11:00:26.885Z,65.69
2016-07-16T11:01:25.857Z,66.17
2016-07-16T11:02:26.053Z,65.89
2016-07-16T11:03:25.868Z,65.98
2016-07-16T11:04:25.879Z,66.66
2016-07-16T11:05:25.870Z,66.08
2016-07-16T11:06:26.130Z,66.08
2016-07-16T11:07:26.030Z,66.17
2016-07-16T11:08:26.053Z,66.08
2016-07-16T11:09:25.860Z,65.59
2016-07-16T11:10:25.877Z,65.5
2016-07-16T11:11:25.943Z,65.79
2016-07-16T11:12:25.873Z,66.02
2016-07-16T11:13:26.082Z,65.82
2016-07-16T11:14:25.885Z,64.95
2016-07-16T11:15:25.908Z,64.47
2016-07-16T11:16:25.902Z,64.75
2016-07-16T11:17:25.872Z,66.24
2016-07-16T11:18:25.901Z,65.37
2016-07-16T11:19:25.917Z,64.07
2016-07-16T11:20:25.914Z,63.69
2016-07-16T11:21:25.909Z,64.85
2016-07-16T11:22:25.901Z,65.24
2016-07-16T11:23:25.906Z,65.14
2016-07-16T11:24:25.933Z,65.34
2016-07-16T11:25:26.286Z,65.82
2016-07-16T11:26:25.896Z,66.3
2016-07-16T11:27:25.903Z,65.34
2016-07-16T11:28:25.964Z,65.3
2016-07-16T11:29:25.901Z,66.85
2016-07-16T11:30:25.947Z,66.85
2016-07-16T11:31:25.952Z,67.44
2016-07-16T11:32:25.901Z,67.5
2016-07-16T11:33:25.907Z,67.5
2016-07-16T11:34:25.887Z,67.5
2016-07-16T11:35:25.903Z,67.69
2016-07-16T11:36:25.902Z,68.56
2016-07-16T11:37:25.964Z,68.56
2016-07-16T11:38:25.939Z,68.53
2016-07-16T11:39:25.904Z,68.53
2016-07-16T11:40:26.245Z,69.01
2016-07-16T11:41:25.928Z,69.21
2016-07-16T11:42:26.135Z,69.46
2016-07-16T11:43:25.908Z,70.18
2016-07-16T11:44:25.928Z,69.59
2016-07-16T11:45:26.010Z,69.98
2016-07-16T11:46:25.930Z,69.59
2016-07-16T11:47:25.934Z,69.95
2016-07-16T11:48:25.941Z,70.62
2016-07-16T11:49:25.896Z,71.04
2016-07-16T11:50:25.924Z,70.92
2016-07-16T11:51:25.915Z,71.5
2016-07-16T11:52:25.921Z,71.78
2016-07-16T11:53:25.961Z,71.69
2016-07-16T11:54:25.937Z,71.75
2016-07-16T11:55:25.962Z,72.04
2016-07-16T11:56:25.914Z,72.72
2016-07-16T11:57:25.904Z,72.81
2016-07-16T11:58:25.924Z,73.2
2016-07-16T11:59:25.924Z,72.42
2016-07-16T12:00:25.932Z,73.16
2016-07-16T12:01:26.034Z,73.1
2016-07-16T12:02:25.945Z,72.49
2016-07-16T12:03:26.858Z,72.72
2016-07-16T12:04:25.952Z,72.88
2016-07-16T12:05:26.003Z,73.1
2016-07-16T12:06:25.934Z,73.2
2016-07-16T12:07:25.969Z,72.52
2016-07-16T12:08:25.950Z,72.42
2016-07-16T12:09:25.932Z,72.52
2016-07-16T12:10:26.193Z,72.62
2016-07-16T12:11:25.974Z,73.1
2016-07-16T12:12:25.937Z,72.88
2016-07-16T12:13:25.925Z,73.1
2016-07-16T12:14:25.965Z,72.91
2016-07-16T12:15:25.935Z,72.91
2016-07-16T12:16:25.936Z,73.01
2016-07-16T12:17:25.936Z,73.1
2016-07-16T12:18:26.003Z,72.91
2016-07-16T12:19:25.949Z,73.01
2016-07-16T12:20:25.999Z,73.49
2016-07-16T12:21:26.046Z,73.39
2016-07-16T12:22:25.944Z,73.59
2016-07-16T12:23:26.873Z,73.88
2016-07-16T12:24:25.925Z,73.2
2016-07-16T12:25:25.992Z,73.59
2016-07-16T12:26:26.092Z,72.91
2016-07-16T12:27:25.942Z,73.49
2016-07-16T12:28:26.007Z,73.36
2016-07-16T12:29:26.038Z,73.68
2016-07-16T12:30:26.020Z,73.2
2016-07-16T12:31:25.974Z,73.1
2016-07-16T12:32:25.986Z,73.49
2016-07-16T12:33:25.954Z,74.17
2016-07-16T12:34:25.956Z,74.17
2016-07-16T12:35:25.957Z,74.21
2016-07-16T12:36:25.947Z,74.49
2016-07-16T12:37:26.008Z,73.59
2016-07-16T12:38:26.070Z,73.39
2016-07-16T12:39:26.060Z,73.68
2016-07-16T12:40:25.959Z,73.49
2016-07-16T12:41:25.965Z,74.07
2016-07-16T12:42:25.972Z,74.17
2016-07-16T12:43:25.996Z,73.74
2016-07-16T12:44:25.982Z,73.78
2016-07-16T12:45:26.067Z,73.3
2016-07-16T12:46:26.085Z,73.3
2016-07-16T12:47:26.039Z,73.3
2016-07-16T12:48:25.996Z,73.2
2016-07-16T12:49:25.986Z,73.3
2016-07-16T12:50:26.071Z,72.36
2016-07-16T12:51:26.077Z,71.69
2016-07-16T12:52:26.027Z,71.69
2016-07-16T12:53:25.997Z,71.62
2016-07-16T12:54:26.120Z,71.72